Latest Coastal Weather Observations for Robe Airport

IDS60701

Issued at 1:21 am CST Monday 15 April 2024 (issued every 10 minutes, with the page automatically refreshed every 10 minutes)

About coastal observations | Map of coastal stations | Coastal observations for SA | Marine services | Other Formats
Station Details ID: 026105 Name: ROBE AIRFIELD Lat: -37.18 Lon: 139.81 Height: 3.0 m
Data from the previous 72 hours. | See also: Recent months at Robe Airport
Date/Time
CST
Wind Sea
Height
m
Swell Vis
km
Cloud Weather Temp
°C
Press
MSL
hPa
Rain since
9am
mm
Dir  Spd
kts
Gust
kts
Height
m
Period
s
Dir
15/01:00am CALM 0 0 - - - - - - - 7.3 1024.1 0.0
15/12:30am CALM 0 0 - - - - - - - 6.8 1024.1 0.0
15/12:00am CALM 0 0 - - - - - - - 7.1 1024.0 0.0
 
Date/Time
CST
Wind Sea
Height
m
Swell Vis
km
Cloud Weather Temp
°C
Press
MSL
hPa
Rain since
9am
mm
Dir  Spd
kts
Gust
kts
Height
m
Period
s
Dir
14/11:30pm CALM 0 0 - - - - - - - 9.1 1024.0 0.0
14/11:00pm CALM 0 0 - - - - - - - 9.2 1024.2 0.0
14/10:30pm CALM 0 0 - - - - - - - 10.2 1024.5 0.0
14/10:00pm CALM 0 0 - - - - - - - 9.7 1024.6 0.0
14/09:30pm CALM 0 0 - - - - - - - 9.4 1024.4 0.0
14/09:00pm W 2 4 - - - - - - - 10.3 1024.3 0.0
14/08:30pm W 3 4 - - - - - - - 13.1 1024.3 0.0
14/08:00pm WNW 2 3 - - - - - - - 12.6 1024.3 0.0
14/07:30pm WNW 2 3 - - - - - - - 12.6 1024.2 0.0
14/07:00pm WNW 2 3 - - - - - - - 13.1 1023.9 0.0
14/06:30pm NW 3 3 - - - - - - - 13.2 1023.8 0.0
14/06:00pm NW 3 4 - - - - - - - 13.3 1023.5 0.0
14/05:30pm NW 2 3 - - - - - - - 14.2 1023.3 0.0
14/05:00pm NW 4 6 - - - - - - - 15.9 1023.1 0.0
14/04:30pm NW 6 9 - - - - - - - 16.5 1023.0 0.0
14/04:00pm NNW 7 10 - - - - - - - 17.1 1023.0 0.0
14/03:30pm NW 7 11 - - - - - - - 17.4 1023.1 0.0
14/03:00pm NW 7 10 - - - - - - - 16.8 1023.2 0.0
14/02:30pm WNW 4 9 - - - - - - - 16.8 1023.1 0.0
14/02:00pm NW 7 9 - - - - - - - 16.6 1023.1 0.0
14/01:30pm NW 7 11 - - - - - - - 16.8 1023.2 0.0
14/01:00pm NW 5 11 - - - - - - - 16.9 1023.3 0.0
14/12:30pm NW 5 9 - - - - - - - 16.3 1023.7 0.0
14/12:00pm NW 7 10 - - - - - - - 16.2 1024.0 0.0
14/11:30am WNW 6 11 - - - - - - - 16.6 1024.3 0.0
14/11:00am NW 7 10 - - - - - - - 15.8 1024.3 0.0
14/10:30am NW 5 7 - - - - - - - 15.5 1024.4 0.0
14/10:00am NW 7 9 - - - - - - - 14.8 1024.5 0.0
14/09:30am NNW 3 5 - - - - - - - 14.5 1024.7 0.0
14/09:00am NNW 4 5 - - - - - - - 13.9 1024.7 0.2
14/08:30am WSW 2 3 - - - - - - - 13.5 1024.6 0.2
14/08:00am CALM 0 0 - - - - - - - 10.4 1024.5 0.2
14/07:30am CALM 0 0 - - - - - - - 7.9 1024.3 0.2
14/07:00am CALM 0 0 - - - - - - - 4.4 1024.1 0.2
14/06:30am CALM 0 0 - - - - - - - 4.8 1023.8 0.2
14/06:00am CALM 0 0 - - - - - - - 5.0 1023.6 0.2
14/05:30am CALM 0 0 - - - - - - - 4.8 1023.6 0.2
14/05:00am CALM 0 0 - - - - - - - 4.9 1023.5 0.2
14/04:30am CALM 0 0 - - - - - - - 5.3 1023.4 0.2
14/04:00am CALM 0 0 - - - - - - - 5.2 1023.3 0.2
14/03:30am CALM 0 0 - - - - - - - 5.5 1023.4 0.2
14/03:00am CALM 0 0 - - - - - - - 6.2 1023.4 0.0
14/02:30am CALM 0 0 - - - - - - - 6.0 1023.6 0.0
14/02:00am CALM 0 0 - - - - - - - 5.3 1023.8 0.0
14/01:30am CALM 0 0 - - - - - - - 5.9 1023.9 0.0
14/01:00am CALM 0 0 - - - - - - - 5.8 1023.8 0.0
14/12:30am CALM 0 0 - - - - - - - 5.8 1023.9 0.0
14/12:00am CALM 0 0 - - - - - - - 6.5 1024.0 0.0
 
Date/Time
CST
Wind Sea
Height
m
Swell Vis
km
Cloud Weather Temp
°C
Press
MSL
hPa
Rain since
9am
mm
Dir  Spd
kts
Gust
kts
Height
m
Period
s
Dir
13/11:30pm CALM 0 0 - - - - - - - 6.8 1024.1 0.0
13/11:00pm CALM 0 0 - - - - - - - 6.7 1024.3 0.0
13/10:30pm CALM 0 0 - - - - - - - 7.1 1024.6 0.0
13/10:00pm CALM 0 0 - - - - - - - 6.6 1024.7 0.0
13/09:30pm CALM 0 0 - - - - - - - 8.0 1024.8 0.0
13/09:00pm CALM 0 0 - - - - - - - 7.7 1024.7 0.0
13/08:30pm CALM 0 0 - - - - - - - 8.4 1024.7 0.0
13/08:00pm CALM 0 0 - - - - - - - 9.3 1024.4 0.0
13/07:30pm CALM 0 0 - - - - - - - 10.5 1024.4 0.0
13/07:00pm CALM 0 0 - - - - - - - 10.8 1024.3 0.0
13/06:30pm CALM 0 0 - - - - - - - 12.4 1024.2 0.0
13/06:00pm CALM 0 0 - - - - - - - 13.7 1024.0 0.0
13/05:30pm WSW 3 5 - - - - - - - 14.9 1023.7 0.0
13/05:00pm WSW 4 8 - - - - - - - 15.7 1023.6 0.0
13/04:30pm WSW 5 9 - - - - - - - 15.3 1023.6 0.0
13/04:00pm WSW 5 10 - - - - - - - 15.9 1023.6 0.0
13/03:30pm WSW 6 11 - - - - - - - 17.1 1023.5 0.0
13/03:00pm WSW 7 10 - - - - - - - 16.5 1023.7 0.0
13/02:30pm W 7 11 - - - - - - - 17.1 1023.8 0.0
13/02:00pm W 5 9 - - - - - - - 16.6 1024.0 0.0
13/01:30pm W 5 8 - - - - - - - 16.5 1024.0 0.0
13/01:00pm WSW 5 8 - - - - - - - 16.6 1024.3 0.0
13/12:30pm W 3 6 - - - - - - - 16.4 1024.6 0.0
13/12:00pm NW 5 8 - - - - - - - 16.0 1024.9 0.0
13/11:30am WNW 3 7 - - - - - - - 17.1 1025.0 0.0
13/11:00am NNW 1 4 - - - - - - - 15.7 1025.2 0.0
13/10:30am CALM 0 0 - - - - - - - 15.1 1025.2 0.0
13/10:00am CALM 0 0 - - - - - - - 15.1 1025.3 0.0
13/09:30am CALM 0 0 - - - - - - - 15.0 1025.3 0.0
13/09:00am NNW 1 4 - - - - - - - 14.6 1025.2 0.8
13/08:30am CALM 0 0 - - - - - - - 14.1 1025.0 0.8
13/08:00am CALM 0 0 - - - - - - - 13.5 1024.7 0.8
13/07:30am CALM 0 0 - - - - - - - 12.8 1024.6 0.8
13/07:00am CALM 0 0 - - - - - - - 12.3 1024.2 0.8
13/06:30am NNW 2 4 - - - - - - - 12.0 1024.0 0.8
13/06:00am NNW 2 3 - - - - - - - 11.8 1023.8 0.8
13/05:30am CALM 0 0 - - - - - - - 11.5 1023.6 0.8
13/05:00am CALM 0 0 - - - - - - - 11.8 1023.6 0.8
13/04:30am CALM 0 1 - - - - - - - 12.1 1023.4 0.8
13/04:00am CALM 0 0 - - - - - - - 11.9 1023.1 0.8
13/03:30am CALM 0 0 - - - - - - - 12.0 1023.0 0.8
13/03:00am S 1 2 - - - - - - - 12.2 1023.1 0.8
13/02:30am SSW 5 9 - - - - - - - 13.1 1023.3 0.8
13/02:00am SSW 7 10 - - - - - - - 12.7 1023.3 0.8
13/01:30am SSW 7 9 - - - - - - - 13.4 1023.7 0.6
13/01:00am WSW 1 4 - - - - - - - 13.5 1023.6 0.4
13/12:30am WSW 1 4 - - - - - - - 13.2 1023.5 0.0
13/12:00am WSW 3 7 - - - - - - - 13.2 1023.6 0.0
 
Date/Time
CST
Wind Sea
Height
m
Swell Vis
km
Cloud Weather Temp
°C
Press
MSL
hPa
Rain since
9am
mm
Dir  Spd
kts
Gust
kts
Height
m
Period
s
Dir
12/11:30pm W 2 5 - - - - - - - 13.0 1023.4 0.0
12/11:00pm WNW 4 6 - - - - - - - 13.2 1023.6 0.0
12/10:30pm CALM 0 0 - - - - - - - 11.3 1023.7 0.0
12/10:00pm CALM 0 3 - - - - - - - 11.7 1024.0 0.0
12/09:30pm CALM 0 0 - - - - - - - 10.5 1023.8 0.0
12/09:00pm CALM 0 0 - - - - - - - 11.6 1023.7 0.0
12/08:30pm CALM 0 3 - - - - - - - 13.2 1023.7 0.0
12/08:00pm CALM 0 0 - - - - - - - 13.3 1023.7 0.0
12/07:30pm CALM 0 0 - - - - - - - 13.1 1023.5 0.0
12/07:00pm W 3 5 - - - - - - - 13.2 1023.5 0.0
12/06:30pm W 2 2 - - - - - - - 13.3 1023.1 0.0
12/06:00pm W 2 4 - - - - - - - 14.0 1022.9 0.0
12/05:30pm W 4 7 - - - - - - - 15.3 1022.8 0.0
12/05:00pm W 5 11 - - - - - - - 16.1 1022.6 0.0
12/04:30pm WSW 6 9 - - - - - - - 16.1 1022.4 0.0
12/04:00pm WSW 4 7 - - - - - - - 16.2 1022.5 0.0
12/03:30pm SSW 6 9 - - - - - - - 15.9 1022.6 0.0
12/03:00pm WSW 7 12 - - - - - - - 15.8 1022.6 0.0
12/02:30pm WSW 8 13 - - - - - - - 17.0 1022.6 0.0
12/02:00pm SSW 10 15 - - - - - - - 16.0 1023.0 0.0
12/01:30pm WSW 8 14 - - - - - - - 16.8 1023.2 0.0
12/01:00pm WSW 7 11 - - - - - - - 15.0 1023.6 0.0
12/12:30pm NW 9 13 - - - - - - - 16.4 1024.1 0.0
12/12:00pm W 7 11 - - - - - - - 16.8 1024.5 0.0
12/11:30am W 4 12 - - - - - - - 16.3 1024.7 0.0
12/11:00am SW 2 7 - - - - - - - 15.2 1025.1 0.0
12/10:30am WSW 6 9 - - - - - - - 14.5 1025.3 0.0
12/10:00am NW 7 11 - - - - - - - 15.2 1025.3 0.0
12/09:30am NW 6 8 - - - - - - - 15.3 1025.3 0.0
12/09:00am NW 4 8 - - - - - - - 14.9 1025.3 0.2
12/08:30am N 3 4 - - - - - - - 13.9 1025.1 0.2
12/08:00am NNE 1 3 - - - - - - - 13.0 1025.0 0.2
12/07:30am NNE 3 4 - - - - - - - 12.3 1024.5 0.2
12/07:00am WSW 3 4 - - - - - - - 12.6 1024.2 0.2
12/06:30am WSW 1 4 - - - - - - - 12.6 1023.9 0.2
12/06:00am SW 1 4 - - - - - - - 12.6 1023.7 0.2
12/05:30am CALM 0 0 - - - - - - - 12.6 1023.6 0.2
12/05:00am WSW 2 5 - - - - - - - 12.8 1023.5 0.2
12/04:30am CALM 0 0 - - - - - - - 11.8 1023.3 0.2
12/04:00am CALM 0 0 - - - - - - - 12.3 1023.3 0.2
12/03:30am CALM 0 0 - - - - - - - 12.9 1023.2 0.2
12/03:00am CALM 0 0 - - - - - - - 13.0 1023.5 0.2
12/02:30am CALM 0 0 - - - - - - - 13.3 1023.6 0.2
12/02:00am CALM 0 0 - - - - - - - 13.3 1024.1 0.2
12/01:30am WSW 2 4 - - - - - - - 13.2 1024.1 0.2

Other formats

Comma delimited format used in spreadsheet applications
http://www.bom.gov.au/fwo/IDS60701/IDS60701.95816.axf

JavaScript Object Notation format (JSON) in row-major order
http://www.bom.gov.au/fwo/IDS60701/IDS60701.95816.json

Data quality

Most of these data are generated automatically and are frequently updated. Quality checks on data are not normally performed. It is possible for incorrect values to appear. Refer to information at About Latest Weather Observations and please check the disclaimer before using these data.